Archival Weather

Fukuoka

Fukuoka, Japan (RJFF)

Report from: Tuesday, August 16, 2022 8:30 PM JST
Current time: Sunday, November 27, 2022 5:42 PM JST

Current weather
Weather history
Weather forecast

Present weatherHeavy thunderstorm with rain, mist, heavy thunderstorm with rain
Temperature26.0°C (78.8°F)
Dew point26.0°C (78.8°F)
Winds 7 kts (3.6 m/s, 8.1 mph) Vrb
Winds variableWinds variable from South-Southeast (150°) to West-Southwest (240°)
Visibility2.5 mi. (4 km)
Clouds Few clouds 1,000 ft. (305 m)
Scattered clouds with cumulonimbus 3,000 ft. (914 m)
Ceiling: Broken clouds 4,000 ft. (1,219 m)
Altimeter29.77 in.Hg (1008 mB)
Relative humidity100 %
Density altitude1,896 ft. (578 m)
Flight conditions Instrument Meteorological Conditions
Raw dataRJFF 161130Z 20007KT 150V240 4000 R16/1200VP2000U +TSRA BR FEW010 SCT030CB BKN040 26/26 Q1008 TEMPO 3000 +TSRA BR
An error has occurred. This application may no longer respond until reloaded. Reload 🗙